sensor_id;sensor_type;location;lat;lon;timestamp;P1;durP1;ratioP1;P2;durP2;ratioP2
2041;SDS011;1026;51.460;7.252;2023-05-19T00:01:58;2.67;;;2.47;;
2041;SDS011;1026;51.460;7.252;2023-05-19T00:04:25;2.77;;;2.53;;
2041;SDS011;1026;51.460;7.252;2023-05-19T00:06:51;2.90;;;2.17;;
2041;SDS011;1026;51.460;7.252;2023-05-19T00:09:18;3.47;;;2.20;;
2041;SDS011;1026;51.460;7.252;2023-05-19T00:11:44;2.60;;;2.40;;
2041;SDS011;1026;51.460;7.252;2023-05-19T00:14:10;2.23;;;2.00;;
2041;SDS011;1026;51.460;7.252;2023-05-19T00:16:37;4.03;;;2.57;;
2041;SDS011;1026;51.460;7.252;2023-05-19T00:19:04;3.23;;;2.40;;
2041;SDS011;1026;51.460;7.252;2023-05-19T00:21:30;5.73;;;2.63;;
2041;SDS011;1026;51.460;7.252;2023-05-19T00:23:56;3.10;;;2.80;;
2041;SDS011;1026;51.460;7.252;2023-05-19T00:26:23;2.33;;;2.00;;
2041;SDS011;1026;51.460;7.252;2023-05-19T00:28:51;2.03;;;1.80;;
2041;SDS011;1026;51.460;7.252;2023-05-19T00:31:17;3.60;;;2.60;;
2041;SDS011;1026;51.460;7.252;2023-05-19T00:33:43;2.87;;;2.43;;
2041;SDS011;1026;51.460;7.252;2023-05-19T00:36:08;2.90;;;2.13;;
2041;SDS011;1026;51.460;7.252;2023-05-19T00:38:34;2.07;;;1.97;;
2041;SDS011;1026;51.460;7.252;2023-05-19T00:41:01;1.70;;;1.60;;
2041;SDS011;1026;51.460;7.252;2023-05-19T00:43:28;3.73;;;2.57;;
2041;SDS011;1026;51.460;7.252;2023-05-19T00:45:54;2.50;;;2.20;;
2041;SDS011;1026;51.460;7.252;2023-05-19T00:48:21;3.83;;;2.73;;
2041;SDS011;1026;51.460;7.252;2023-05-19T00:50:49;3.23;;;3.03;;
2041;SDS011;1026;51.460;7.252;2023-05-19T00:53:16;2.53;;;2.23;;
2041;SDS011;1026;51.460;7.252;2023-05-19T00:55:43;3.30;;;2.50;;
2041;SDS011;1026;51.460;7.252;2023-05-19T00:58:10;7.13;;;2.57;;
2041;SDS011;1026;51.460;7.252;2023-05-19T01:00:37;2.13;;;2.00;;
2041;SDS011;1026;51.460;7.252;2023-05-19T01:03:04;3.00;;;2.60;;
2041;SDS011;1026;51.460;7.252;2023-05-19T01:05:37;2.17;;;1.93;;
2041;SDS011;1026;51.460;7.252;2023-05-19T01:08:05;2.60;;;2.40;;
2041;SDS011;1026;51.460;7.252;2023-05-19T01:10:31;2.40;;;2.20;;
2041;SDS011;1026;51.460;7.252;2023-05-19T01:12:57;3.17;;;2.70;;
2041;SDS011;1026;51.460;7.252;2023-05-19T01:15:23;2.17;;;2.07;;
2041;SDS011;1026;51.460;7.252;2023-05-19T01:17:53;3.33;;;2.42;;
2041;SDS011;1026;51.460;7.252;2023-05-19T01:20:29;2.73;;;2.20;;
2041;SDS011;1026;51.460;7.252;2023-05-19T01:28:52;2.90;;;2.60;;
2041;SDS011;1026;51.460;7.252;2023-05-19T01:31:37;2.73;;;2.53;;
2041;SDS011;1026;51.460;7.252;2023-05-19T01:34:06;3.53;;;2.80;;
2041;SDS011;1026;51.460;7.252;2023-05-19T01:36:36;2.73;;;2.53;;
2041;SDS011;1026;51.460;7.252;2023-05-19T01:39:02;2.23;;;2.03;;
2041;SDS011;1026;51.460;7.252;2023-05-19T01:41:28;3.20;;;2.40;;
2041;SDS011;1026;51.460;7.252;2023-05-19T01:43:56;5.50;;;3.10;;
2041;SDS011;1026;51.460;7.252;2023-05-19T01:46:22;5.23;;;3.40;;
2041;SDS011;1026;51.460;7.252;2023-05-19T01:48:48;3.30;;;3.03;;
2041;SDS011;1026;51.460;7.252;2023-05-19T01:51:15;2.77;;;2.47;;
2041;SDS011;1026;51.460;7.252;2023-05-19T01:53:41;2.60;;;2.40;;
2041;SDS011;1026;51.460;7.252;2023-05-19T01:56:06;3.30;;;2.50;;
2041;SDS011;1026;51.460;7.252;2023-05-19T01:58:37;5.03;;;3.13;;
2041;SDS011;1026;51.460;7.252;2023-05-19T02:06:40;2.57;;;2.37;;
2041;SDS011;1026;51.460;7.252;2023-05-19T02:09:50;2.60;;;2.40;;
2041;SDS011;1026;51.460;7.252;2023-05-19T02:12:17;4.50;;;3.13;;
2041;SDS011;1026;51.460;7.252;2023-05-19T02:14:54;2.77;;;2.57;;
2041;SDS011;1026;51.460;7.252;2023-05-19T02:17:35;3.10;;;2.53;;
2041;SDS011;1026;51.460;7.252;2023-05-19T02:20:06;2.80;;;2.60;;
2041;SDS011;1026;51.460;7.252;2023-05-19T02:22:33;2.73;;;2.53;;
2041;SDS011;1026;51.460;7.252;2023-05-19T02:24:59;2.67;;;2.47;;
2041;SDS011;1026;51.460;7.252;2023-05-19T02:27:24;2.37;;;2.17;;
2041;SDS011;1026;51.460;7.252;2023-05-19T02:29:50;3.03;;;2.83;;
2041;SDS011;1026;51.460;7.252;2023-05-19T02:32:16;4.30;;;2.83;;
2041;SDS011;1026;51.460;7.252;2023-05-19T02:34:42;3.50;;;2.93;;
2041;SDS011;1026;51.460;7.252;2023-05-19T02:37:11;2.93;;;2.70;;
2041;SDS011;1026;51.460;7.252;2023-05-19T02:39:38;3.53;;;3.20;;
2041;SDS011;1026;51.460;7.252;2023-05-19T02:42:05;3.40;;;3.10;;
2041;SDS011;1026;51.460;7.252;2023-05-19T02:44:31;2.57;;;2.37;;
2041;SDS011;1026;51.460;7.252;2023-05-19T02:46:57;5.10;;;2.90;;
2041;SDS011;1026;51.460;7.252;2023-05-19T02:49:23;6.20;;;3.20;;
2041;SDS011;1026;51.460;7.252;2023-05-19T02:51:48;2.80;;;2.60;;
2041;SDS011;1026;51.460;7.252;2023-05-19T02:54:14;2.90;;;2.57;;
2041;SDS011;1026;51.460;7.252;2023-05-19T02:56:40;2.97;;;2.67;;
2041;SDS011;1026;51.460;7.252;2023-05-19T02:59:05;2.50;;;2.23;;
2041;SDS011;1026;51.460;7.252;2023-05-19T03:01:31;3.77;;;3.00;;
2041;SDS011;1026;51.460;7.252;2023-05-19T03:03:57;3.20;;;2.70;;
2041;SDS011;1026;51.460;7.252;2023-05-19T03:06:23;2.63;;;2.43;;
2041;SDS011;1026;51.460;7.252;2023-05-19T03:08:49;4.23;;;2.80;;
2041;SDS011;1026;51.460;7.252;2023-05-19T03:11:15;3.00;;;2.70;;
2041;SDS011;1026;51.460;7.252;2023-05-19T03:13:41;4.00;;;2.73;;
2041;SDS011;1026;51.460;7.252;2023-05-19T03:16:06;2.60;;;2.40;;
2041;SDS011;1026;51.460;7.252;2023-05-19T03:18:32;2.20;;;2.10;;
2041;SDS011;1026;51.460;7.252;2023-05-19T03:20:59;2.67;;;2.47;;
2041;SDS011;1026;51.460;7.252;2023-05-19T03:23:24;2.40;;;2.20;;
2041;SDS011;1026;51.460;7.252;2023-05-19T03:25:51;2.77;;;2.57;;
2041;SDS011;1026;51.460;7.252;2023-05-19T03:28:19;2.77;;;2.50;;
2041;SDS011;1026;51.460;7.252;2023-05-19T03:30:45;2.90;;;2.57;;
2041;SDS011;1026;51.460;7.252;2023-05-19T03:33:13;2.50;;;2.30;;
2041;SDS011;1026;51.460;7.252;2023-05-19T03:35:39;2.73;;;2.30;;
2041;SDS011;1026;51.460;7.252;2023-05-19T03:38:05;4.70;;;2.87;;
2041;SDS011;1026;51.460;7.252;2023-05-19T03:40:30;3.70;;;2.50;;
2041;SDS011;1026;51.460;7.252;2023-05-19T03:42:56;3.23;;;2.50;;
2041;SDS011;1026;51.460;7.252;2023-05-19T03:45:22;6.47;;;2.97;;
2041;SDS011;1026;51.460;7.252;2023-05-19T03:47:48;3.07;;;2.70;;
2041;SDS011;1026;51.460;7.252;2023-05-19T03:50:13;3.00;;;2.40;;
2041;SDS011;1026;51.460;7.252;2023-05-19T03:52:39;3.07;;;2.80;;
2041;SDS011;1026;51.460;7.252;2023-05-19T03:55:10;2.77;;;2.57;;
2041;SDS011;1026;51.460;7.252;2023-05-19T03:57:36;5.43;;;2.37;;
2041;SDS011;1026;51.460;7.252;2023-05-19T04:00:02;4.87;;;2.83;;
2041;SDS011;1026;51.460;7.252;2023-05-19T04:02:29;2.50;;;2.30;;
2041;SDS011;1026;51.460;7.252;2023-05-19T04:04:55;3.13;;;2.83;;
2041;SDS011;1026;51.460;7.252;2023-05-19T04:07:21;1.83;;;1.73;;
2041;SDS011;1026;51.460;7.252;2023-05-19T04:09:47;3.13;;;2.60;;
2041;SDS011;1026;51.460;7.252;2023-05-19T04:12:14;3.90;;;2.43;;
2041;SDS011;1026;51.460;7.252;2023-05-19T04:14:39;4.43;;;2.53;;
2041;SDS011;1026;51.460;7.252;2023-05-19T04:17:05;3.10;;;2.80;;
2041;SDS011;1026;51.460;7.252;2023-05-19T04:19:31;3.13;;;2.93;;
2041;SDS011;1026;51.460;7.252;2023-05-19T04:21:56;3.50;;;2.43;;
2041;SDS011;1026;51.460;7.252;2023-05-19T04:24:22;2.93;;;2.63;;
2041;SDS011;1026;51.460;7.252;2023-05-19T04:26:48;2.83;;;2.47;;
2041;SDS011;1026;51.460;7.252;2023-05-19T04:29:14;3.53;;;3.07;;
2041;SDS011;1026;51.460;7.252;2023-05-19T04:31:48;4.53;;;2.80;;
2041;SDS011;1026;51.460;7.252;2023-05-19T04:34:13;2.90;;;2.70;;
2041;SDS011;1026;51.460;7.252;2023-05-19T04:36:39;2.57;;;2.43;;
2041;SDS011;1026;51.460;7.252;2023-05-19T04:39:05;3.30;;;3.00;;
2041;SDS011;1026;51.460;7.252;2023-05-19T04:41:33;3.63;;;3.30;;
2041;SDS011;1026;51.460;7.252;2023-05-19T04:43:59;2.93;;;2.63;;
2041;SDS011;1026;51.460;7.252;2023-05-19T04:46:25;3.13;;;2.80;;
2041;SDS011;1026;51.460;7.252;2023-05-19T04:48:53;3.30;;;2.70;;
2041;SDS011;1026;51.460;7.252;2023-05-19T04:51:21;3.27;;;2.40;;
2041;SDS011;1026;51.460;7.252;2023-05-19T04:53:51;3.60;;;2.73;;
2041;SDS011;1026;51.460;7.252;2023-05-19T04:56:22;4.13;;;3.37;;
2041;SDS011;1026;51.460;7.252;2023-05-19T04:58:48;4.07;;;2.93;;
2041;SDS011;1026;51.460;7.252;2023-05-19T05:01:14;4.27;;;2.77;;
2041;SDS011;1026;51.460;7.252;2023-05-19T05:03:40;2.57;;;2.37;;
2041;SDS011;1026;51.460;7.252;2023-05-19T05:06:07;3.77;;;3.43;;
2041;SDS011;1026;51.460;7.252;2023-05-19T05:08:32;3.27;;;2.97;;
2041;SDS011;1026;51.460;7.252;2023-05-19T05:11:01;3.80;;;3.50;;
2041;SDS011;1026;51.460;7.252;2023-05-19T05:13:28;6.80;;;3.57;;
2041;SDS011;1026;51.460;7.252;2023-05-19T05:15:54;2.90;;;2.70;;
2041;SDS011;1026;51.460;7.252;2023-05-19T05:18:28;3.40;;;2.57;;
2041;SDS011;1026;51.460;7.252;2023-05-19T05:20:54;4.83;;;3.37;;
2041;SDS011;1026;51.460;7.252;2023-05-19T05:23:26;3.20;;;2.90;;
2041;SDS011;1026;51.460;7.252;2023-05-19T05:25:55;3.40;;;3.10;;
2041;SDS011;1026;51.460;7.252;2023-05-19T05:28:21;2.97;;;2.77;;
2041;SDS011;1026;51.460;7.252;2023-05-19T05:30:47;3.67;;;3.10;;
2041;SDS011;1026;51.460;7.252;2023-05-19T05:33:13;3.33;;;3.10;;
2041;SDS011;1026;51.460;7.252;2023-05-19T05:35:39;4.60;;;3.30;;
2041;SDS011;1026;51.460;7.252;2023-05-19T05:38:04;2.67;;;2.47;;
2041;SDS011;1026;51.460;7.252;2023-05-19T05:40:30;3.70;;;3.33;;
2041;SDS011;1026;51.460;7.252;2023-05-19T05:42:56;2.87;;;2.67;;
2041;SDS011;1026;51.460;7.252;2023-05-19T05:45:23;3.10;;;2.80;;
2041;SDS011;1026;51.460;7.252;2023-05-19T05:47:49;4.20;;;2.77;;
2041;SDS011;1026;51.460;7.252;2023-05-19T05:50:15;3.13;;;2.93;;
2041;SDS011;1026;51.460;7.252;2023-05-19T05:52:43;3.43;;;3.13;;
2041;SDS011;1026;51.460;7.252;2023-05-19T05:55:11;4.20;;;3.17;;
2041;SDS011;1026;51.460;7.252;2023-05-19T05:57:37;2.90;;;2.70;;
2041;SDS011;1026;51.460;7.252;2023-05-19T06:00:06;3.20;;;2.90;;
2041;SDS011;1026;51.460;7.252;2023-05-19T06:02:39;2.93;;;2.73;;
2041;SDS011;1026;51.460;7.252;2023-05-19T06:05:07;4.93;;;3.10;;
2041;SDS011;1026;51.460;7.252;2023-05-19T06:07:36;3.10;;;2.90;;
2041;SDS011;1026;51.460;7.252;2023-05-19T06:10:03;5.00;;;2.90;;
2041;SDS011;1026;51.460;7.252;2023-05-19T06:12:29;3.20;;;3.00;;
2041;SDS011;1026;51.460;7.252;2023-05-19T06:14:55;3.50;;;3.20;;
2041;SDS011;1026;51.460;7.252;2023-05-19T06:17:20;4.57;;;3.10;;
2041;SDS011;1026;51.460;7.252;2023-05-19T06:19:46;5.57;;;3.30;;
2041;SDS011;1026;51.460;7.252;2023-05-19T06:22:12;8.40;;;3.00;;
2041;SDS011;1026;51.460;7.252;2023-05-19T06:24:37;4.77;;;3.40;;
2041;SDS011;1026;51.460;7.252;2023-05-19T06:27:03;3.30;;;2.90;;
2041;SDS011;1026;51.460;7.252;2023-05-19T06:29:29;3.17;;;2.97;;
2041;SDS011;1026;51.460;7.252;2023-05-19T06:32:03;2.83;;;2.63;;
2041;SDS011;1026;51.460;7.252;2023-05-19T06:34:29;4.70;;;3.00;;
2041;SDS011;1026;51.460;7.252;2023-05-19T06:36:58;5.13;;;2.67;;
2041;SDS011;1026;51.460;7.252;2023-05-19T06:39:26;3.30;;;3.00;;
2041;SDS011;1026;51.460;7.252;2023-05-19T06:41:51;3.37;;;2.70;;
2041;SDS011;1026;51.460;7.252;2023-05-19T06:44:50;4.00;;;3.07;;
2041;SDS011;1026;51.460;7.252;2023-05-19T06:47:23;2.97;;;2.60;;
2041;SDS011;1026;51.460;7.252;2023-05-19T06:49:49;3.23;;;2.07;;
2041;SDS011;1026;51.460;7.252;2023-05-19T06:52:19;3.10;;;2.80;;
2041;SDS011;1026;51.460;7.252;2023-05-19T06:54:45;3.37;;;2.83;;
2041;SDS011;1026;51.460;7.252;2023-05-19T06:57:11;2.43;;;2.33;;
2041;SDS011;1026;51.460;7.252;2023-05-19T06:59:37;4.77;;;3.10;;
2041;SDS011;1026;51.460;7.252;2023-05-19T07:02:05;3.57;;;2.80;;
2041;SDS011;1026;51.460;7.252;2023-05-19T07:04:31;5.07;;;2.57;;
2041;SDS011;1026;51.460;7.252;2023-05-19T07:06:57;2.70;;;2.50;;
2041;SDS011;1026;51.460;7.252;2023-05-19T07:09:23;2.60;;;2.40;;
2041;SDS011;1026;51.460;7.252;2023-05-19T07:11:48;3.53;;;3.10;;
2041;SDS011;1026;51.460;7.252;2023-05-19T07:14:14;2.97;;;2.73;;
2041;SDS011;1026;51.460;7.252;2023-05-19T07:16:40;4.63;;;3.00;;
2041;SDS011;1026;51.460;7.252;2023-05-19T07:19:05;3.80;;;2.70;;
2041;SDS011;1026;51.460;7.252;2023-05-19T07:21:31;3.87;;;2.50;;
2041;SDS011;1026;51.460;7.252;2023-05-19T07:24:02;2.47;;;2.27;;
2041;SDS011;1026;51.460;7.252;2023-05-19T07:26:28;2.57;;;2.37;;
2041;SDS011;1026;51.460;7.252;2023-05-19T07:28:54;5.93;;;2.60;;
2041;SDS011;1026;51.460;7.252;2023-05-19T07:31:20;7.27;;;3.10;;
2041;SDS011;1026;51.460;7.252;2023-05-19T07:33:46;2.87;;;1.97;;
2041;SDS011;1026;51.460;7.252;2023-05-19T07:36:12;2.60;;;2.40;;
2041;SDS011;1026;51.460;7.252;2023-05-19T07:38:37;2.80;;;2.57;;
2041;SDS011;1026;51.460;7.252;2023-05-19T07:41:03;6.03;;;2.60;;
2041;SDS011;1026;51.460;7.252;2023-05-19T07:43:29;5.70;;;3.00;;
2041;SDS011;1026;51.460;7.252;2023-05-19T07:45:56;2.37;;;2.17;;
2041;SDS011;1026;51.460;7.252;2023-05-19T07:48:24;3.40;;;2.30;;
2041;SDS011;1026;51.460;7.252;2023-05-19T07:50:51;4.43;;;2.60;;
2041;SDS011;1026;51.460;7.252;2023-05-19T07:53:17;3.05;;;2.40;;
2041;SDS011;1026;51.460;7.252;2023-05-19T07:55:44;2.83;;;2.00;;
2041;SDS011;1026;51.460;7.252;2023-05-19T07:58:10;2.67;;;2.47;;
2041;SDS011;1026;51.460;7.252;2023-05-19T08:00:35;2.70;;;2.10;;
2041;SDS011;1026;51.460;7.252;2023-05-19T08:03:09;2.40;;;2.20;;
2041;SDS011;1026;51.460;7.252;2023-05-19T08:05:36;2.27;;;2.07;;
2041;SDS011;1026;51.460;7.252;2023-05-19T08:08:02;4.27;;;2.20;;
2041;SDS011;1026;51.460;7.252;2023-05-19T08:10:28;3.40;;;2.43;;
2041;SDS011;1026;51.460;7.252;2023-05-19T08:12:54;3.57;;;2.20;;
2041;SDS011;1026;51.460;7.252;2023-05-19T08:15:19;4.70;;;2.60;;
2041;SDS011;1026;51.460;7.252;2023-05-19T08:17:45;3.30;;;2.60;;
2041;SDS011;1026;51.460;7.252;2023-05-19T08:20:11;3.20;;;1.90;;
2041;SDS011;1026;51.460;7.252;2023-05-19T08:22:37;2.90;;;2.37;;
2041;SDS011;1026;51.460;7.252;2023-05-19T08:25:03;2.57;;;2.00;;
2041;SDS011;1026;51.460;7.252;2023-05-19T08:27:29;2.60;;;2.40;;
2041;SDS011;1026;51.460;7.252;2023-05-19T08:29:55;2.63;;;2.40;;
2041;SDS011;1026;51.460;7.252;2023-05-19T08:32:22;2.80;;;1.90;;
2041;SDS011;1026;51.460;7.252;2023-05-19T08:34:47;2.10;;;1.90;;
2041;SDS011;1026;51.460;7.252;2023-05-19T08:37:13;1.97;;;1.67;;
2041;SDS011;1026;51.460;7.252;2023-05-19T08:39:39;3.30;;;2.00;;
2041;SDS011;1026;51.460;7.252;2023-05-19T08:42:05;3.17;;;2.00;;
2041;SDS011;1026;51.460;7.252;2023-05-19T08:44:51;3.90;;;2.07;;
2041;SDS011;1026;51.460;7.252;2023-05-19T08:47:23;2.13;;;1.93;;
2041;SDS011;1026;51.460;7.252;2023-05-19T08:49:58;1.80;;;1.70;;
2041;SDS011;1026;51.460;7.252;2023-05-19T08:52:38;2.33;;;1.77;;
2041;SDS011;1026;51.460;7.252;2023-05-19T08:58:02;1.93;;;1.80;;
2041;SDS011;1026;51.460;7.252;2023-05-19T09:00:29;3.90;;;2.00;;
2041;SDS011;1026;51.460;7.252;2023-05-19T09:02:55;2.93;;;2.07;;
2041;SDS011;1026;51.460;7.252;2023-05-19T09:05:21;2.03;;;1.90;;
2041;SDS011;1026;51.460;7.252;2023-05-19T09:07:47;3.83;;;2.27;;
2041;SDS011;1026;51.460;7.252;2023-05-19T09:10:13;5.50;;;1.63;;
2041;SDS011;1026;51.460;7.252;2023-05-19T09:12:44;3.00;;;2.00;;
2041;SDS011;1026;51.460;7.252;2023-05-19T09:15:12;3.95;;;1.70;;
2041;SDS011;1026;51.460;7.252;2023-05-19T09:17:43;2.63;;;2.40;;
2041;SDS011;1026;51.460;7.252;2023-05-19T09:20:12;2.43;;;1.80;;
2041;SDS011;1026;51.460;7.252;2023-05-19T09:22:39;3.67;;;2.60;;
2041;SDS011;1026;51.460;7.252;2023-05-19T09:25:17;3.23;;;2.03;;
2041;SDS011;1026;51.460;7.252;2023-05-19T09:27:44;2.00;;;1.80;;
2041;SDS011;1026;51.460;7.252;2023-05-19T09:30:11;5.27;;;1.73;;
2041;SDS011;1026;51.460;7.252;2023-05-19T09:32:37;2.20;;;1.83;;
2041;SDS011;1026;51.460;7.252;2023-05-19T09:35:03;3.03;;;1.70;;
2041;SDS011;1026;51.460;7.252;2023-05-19T09:37:29;3.17;;;1.80;;
2041;SDS011;1026;51.460;7.252;2023-05-19T09:39:56;2.70;;;1.60;;
2041;SDS011;1026;51.460;7.252;2023-05-19T09:42:23;3.93;;;1.77;;
2041;SDS011;1026;51.460;7.252;2023-05-19T09:44:57;3.40;;;1.60;;
2041;SDS011;1026;51.460;7.252;2023-05-19T09:47:26;3.57;;;1.60;;
2041;SDS011;1026;51.460;7.252;2023-05-19T09:49:52;5.43;;;2.43;;
2041;SDS011;1026;51.460;7.252;2023-05-19T09:52:18;5.20;;;1.70;;
2041;SDS011;1026;51.460;7.252;2023-05-19T09:54:44;5.70;;;1.93;;
2041;SDS011;1026;51.460;7.252;2023-05-19T09:57:11;1.90;;;1.80;;
2041;SDS011;1026;51.460;7.252;2023-05-19T09:59:37;2.40;;;1.83;;
2041;SDS011;1026;51.460;7.252;2023-05-19T10:02:04;2.20;;;1.70;;
2041;SDS011;1026;51.460;7.252;2023-05-19T10:04:36;2.80;;;1.67;;
2041;SDS011;1026;51.460;7.252;2023-05-19T10:07:02;2.10;;;1.47;;
2041;SDS011;1026;51.460;7.252;2023-05-19T10:09:30;2.33;;;1.50;;
2041;SDS011;1026;51.460;7.252;2023-05-19T10:11:56;1.90;;;1.43;;
2041;SDS011;1026;51.460;7.252;2023-05-19T10:14:23;2.23;;;1.80;;
2041;SDS011;1026;51.460;7.252;2023-05-19T10:16:50;2.07;;;1.60;;
2041;SDS011;1026;51.460;7.252;2023-05-19T10:19:21;1.70;;;1.60;;
2041;SDS011;1026;51.460;7.252;2023-05-19T10:22:02;3.23;;;1.93;;
2041;SDS011;1026;51.460;7.252;2023-05-19T10:24:28;1.83;;;1.50;;
2041;SDS011;1026;51.460;7.252;2023-05-19T10:26:57;2.60;;;2.00;;
2041;SDS011;1026;51.460;7.252;2023-05-19T10:29:30;2.60;;;2.40;;
2041;SDS011;1026;51.460;7.252;2023-05-19T10:32:01;2.80;;;1.60;;
2041;SDS011;1026;51.460;7.252;2023-05-19T10:34:46;1.57;;;1.23;;
2041;SDS011;1026;51.460;7.252;2023-05-19T10:39:58;2.10;;;1.50;;
2041;SDS011;1026;51.460;7.252;2023-05-19T10:42:35;6.30;;;2.80;;
2041;SDS011;1026;51.460;7.252;2023-05-19T10:47:51;3.10;;;1.80;;
2041;SDS011;1026;51.460;7.252;2023-05-19T10:50:19;1.73;;;1.57;;
2041;SDS011;1026;51.460;7.252;2023-05-19T10:52:44;2.90;;;1.80;;
2041;SDS011;1026;51.460;7.252;2023-05-19T10:55:43;1.50;;;1.40;;
2041;SDS011;1026;51.460;7.252;2023-05-19T10:58:09;2.60;;;1.50;;
2041;SDS011;1026;51.460;7.252;2023-05-19T11:00:35;5.20;;;1.87;;
2041;SDS011;1026;51.460;7.252;2023-05-19T11:05:47;1.60;;;1.50;;
2041;SDS011;1026;51.460;7.252;2023-05-19T11:08:15;1.40;;;1.30;;
2041;SDS011;1026;51.460;7.252;2023-05-19T11:10:43;1.87;;;1.50;;
2041;SDS011;1026;51.460;7.252;2023-05-19T11:13:17;2.23;;;1.60;;
2041;SDS011;1026;51.460;7.252;2023-05-19T11:15:45;2.53;;;1.63;;
2041;SDS011;1026;51.460;7.252;2023-05-19T11:18:12;1.67;;;1.53;;
2041;SDS011;1026;51.460;7.252;2023-05-19T11:20:40;2.27;;;1.40;;
2041;SDS011;1026;51.460;7.252;2023-05-19T11:23:06;3.20;;;1.73;;
2041;SDS011;1026;51.460;7.252;2023-05-19T11:25:50;1.67;;;1.57;;
2041;SDS011;1026;51.460;7.252;2023-05-19T11:28:19;1.90;;;1.53;;
2041;SDS011;1026;51.460;7.252;2023-05-19T11:30:49;1.50;;;1.40;;
2041;SDS011;1026;51.460;7.252;2023-05-19T11:33:18;1.40;;;1.30;;
2041;SDS011;1026;51.460;7.252;2023-05-19T11:35:51;1.40;;;1.30;;
2041;SDS011;1026;51.460;7.252;2023-05-19T11:38:18;1.90;;;1.70;;
2041;SDS011;1026;51.460;7.252;2023-05-19T11:40:47;2.03;;;1.83;;
2041;SDS011;1026;51.460;7.252;2023-05-19T11:43:14;4.10;;;1.57;;
2041;SDS011;1026;51.460;7.252;2023-05-19T11:45:40;5.00;;;1.40;;
2041;SDS011;1026;51.460;7.252;2023-05-19T11:48:10;2.03;;;1.60;;
2041;SDS011;1026;51.460;7.252;2023-05-19T11:50:36;1.97;;;1.70;;
2041;SDS011;1026;51.460;7.252;2023-05-19T11:53:04;3.20;;;1.63;;
2041;SDS011;1026;51.460;7.252;2023-05-19T11:55:30;1.97;;;1.33;;
2041;SDS011;1026;51.460;7.252;2023-05-19T11:57:59;6.60;;;1.60;;
2041;SDS011;1026;51.460;7.252;2023-05-19T12:00:27;2.13;;;1.33;;
2041;SDS011;1026;51.460;7.252;2023-05-19T12:02:54;2.33;;;1.50;;
2041;SDS011;1026;51.460;7.252;2023-05-19T12:05:21;1.53;;;1.40;;
2041;SDS011;1026;51.460;7.252;2023-05-19T12:07:48;4.10;;;2.10;;
2041;SDS011;1026;51.460;7.252;2023-05-19T12:10:16;2.43;;;1.63;;
2041;SDS011;1026;51.460;7.252;2023-05-19T12:12:45;1.63;;;1.53;;
2041;SDS011;1026;51.460;7.252;2023-05-19T12:15:13;1.80;;;1.40;;
2041;SDS011;1026;51.460;7.252;2023-05-19T12:17:40;1.70;;;1.60;;
2041;SDS011;1026;51.460;7.252;2023-05-19T12:20:06;2.60;;;1.43;;
2041;SDS011;1026;51.460;7.252;2023-05-19T12:22:33;2.77;;;1.63;;
2041;SDS011;1026;51.460;7.252;2023-05-19T12:24:59;2.60;;;1.97;;
2041;SDS011;1026;51.460;7.252;2023-05-19T12:27:25;1.77;;;1.40;;
2041;SDS011;1026;51.460;7.252;2023-05-19T12:29:52;1.97;;;1.73;;
2041;SDS011;1026;51.460;7.252;2023-05-19T12:32:22;1.77;;;1.60;;
2041;SDS011;1026;51.460;7.252;2023-05-19T12:34:49;1.57;;;1.43;;
2041;SDS011;1026;51.460;7.252;2023-05-19T12:37:16;1.97;;;1.60;;
2041;SDS011;1026;51.460;7.252;2023-05-19T12:39:42;2.30;;;1.50;;
2041;SDS011;1026;51.460;7.252;2023-05-19T12:42:09;1.93;;;1.47;;
2041;SDS011;1026;51.460;7.252;2023-05-19T12:44:37;1.70;;;1.60;;
2041;SDS011;1026;51.460;7.252;2023-05-19T12:47:06;1.60;;;1.10;;
2041;SDS011;1026;51.460;7.252;2023-05-19T12:49:32;3.20;;;1.90;;
2041;SDS011;1026;51.460;7.252;2023-05-19T12:52:00;1.50;;;1.40;;
2041;SDS011;1026;51.460;7.252;2023-05-19T12:54:27;2.43;;;2.10;;
2041;SDS011;1026;51.460;7.252;2023-05-19T12:56:57;2.17;;;1.77;;
2041;SDS011;1026;51.460;7.252;2023-05-19T12:59:23;1.33;;;1.23;;
2041;SDS011;1026;51.460;7.252;2023-05-19T13:01:56;3.17;;;1.63;;
2041;SDS011;1026;51.460;7.252;2023-05-19T13:04:23;1.57;;;1.33;;
2041;SDS011;1026;51.460;7.252;2023-05-19T13:06:50;2.60;;;1.77;;
2041;SDS011;1026;51.460;7.252;2023-05-19T13:09:16;1.87;;;1.37;;
2041;SDS011;1026;51.460;7.252;2023-05-19T13:11:42;2.00;;;1.40;;
2041;SDS011;1026;51.460;7.252;2023-05-19T13:14:12;1.50;;;1.40;;
2041;SDS011;1026;51.460;7.252;2023-05-19T13:16:39;1.80;;;1.50;;
2041;SDS011;1026;51.460;7.252;2023-05-19T13:19:05;4.10;;;1.63;;
2041;SDS011;1026;51.460;7.252;2023-05-19T13:21:31;1.10;;;0.90;;
2041;SDS011;1026;51.460;7.252;2023-05-19T13:23:56;1.57;;;1.47;;
2041;SDS011;1026;51.460;7.252;2023-05-19T13:26:22;3.30;;;1.40;;
2041;SDS011;1026;51.460;7.252;2023-05-19T13:28:48;5.33;;;1.80;;
2041;SDS011;1026;51.460;7.252;2023-05-19T13:31:13;1.87;;;1.50;;
2041;SDS011;1026;51.460;7.252;2023-05-19T13:33:39;4.03;;;1.60;;
2041;SDS011;1026;51.460;7.252;2023-05-19T13:36:05;1.40;;;1.30;;
2041;SDS011;1026;51.460;7.252;2023-05-19T13:38:31;1.83;;;1.50;;
2041;SDS011;1026;51.460;7.252;2023-05-19T13:40:56;1.50;;;1.40;;
2041;SDS011;1026;51.460;7.252;2023-05-19T13:43:22;5.70;;;2.00;;
2041;SDS011;1026;51.460;7.252;2023-05-19T13:45:47;2.70;;;1.67;;
2041;SDS011;1026;51.460;7.252;2023-05-19T13:48:13;2.33;;;2.13;;
2041;SDS011;1026;51.460;7.252;2023-05-19T13:50:39;1.90;;;1.47;;
2041;SDS011;1026;51.460;7.252;2023-05-19T13:53:05;1.63;;;1.50;;
2041;SDS011;1026;51.460;7.252;2023-05-19T13:55:31;1.70;;;1.60;;
2041;SDS011;1026;51.460;7.252;2023-05-19T13:57:57;2.43;;;1.20;;
2041;SDS011;1026;51.460;7.252;2023-05-19T14:00:22;2.20;;;1.37;;
2041;SDS011;1026;51.460;7.252;2023-05-19T14:02:48;2.73;;;1.33;;
2041;SDS011;1026;51.460;7.252;2023-05-19T14:05:14;1.50;;;1.40;;
2041;SDS011;1026;51.460;7.252;2023-05-19T14:07:39;2.70;;;2.03;;
2041;SDS011;1026;51.460;7.252;2023-05-19T14:10:06;2.53;;;1.60;;
2041;SDS011;1026;51.460;7.252;2023-05-19T14:12:33;1.33;;;1.20;;
2041;SDS011;1026;51.460;7.252;2023-05-19T14:14:59;1.30;;;1.20;;
2041;SDS011;1026;51.460;7.252;2023-05-19T14:17:26;1.43;;;1.23;;
2041;SDS011;1026;51.460;7.252;2023-05-19T14:19:52;2.10;;;1.70;;
2041;SDS011;1026;51.460;7.252;2023-05-19T14:22:18;1.63;;;1.53;;
2041;SDS011;1026;51.460;7.252;2023-05-19T14:24:44;1.53;;;1.40;;
2041;SDS011;1026;51.460;7.252;2023-05-19T14:27:09;2.03;;;1.40;;
2041;SDS011;1026;51.460;7.252;2023-05-19T14:29:35;2.37;;;1.70;;
2041;SDS011;1026;51.460;7.252;2023-05-19T14:32:01;2.07;;;1.70;;
2041;SDS011;1026;51.460;7.252;2023-05-19T14:34:27;1.50;;;1.40;;
2041;SDS011;1026;51.460;7.252;2023-05-19T14:36:53;2.17;;;1.60;;
2041;SDS011;1026;51.460;7.252;2023-05-19T14:39:19;1.63;;;1.47;;
2041;SDS011;1026;51.460;7.252;2023-05-19T14:41:45;1.40;;;1.30;;
2041;SDS011;1026;51.460;7.252;2023-05-19T14:44:11;2.30;;;2.10;;
2041;SDS011;1026;51.460;7.252;2023-05-19T14:46:36;1.93;;;1.53;;
2041;SDS011;1026;51.460;7.252;2023-05-19T14:49:02;1.73;;;1.07;;
2041;SDS011;1026;51.460;7.252;2023-05-19T14:51:29;2.40;;;1.60;;
2041;SDS011;1026;51.460;7.252;2023-05-19T14:53:55;1.93;;;1.63;;
2041;SDS011;1026;51.460;7.252;2023-05-19T14:56:21;1.43;;;1.33;;
2041;SDS011;1026;51.460;7.252;2023-05-19T14:58:47;1.47;;;1.30;;
2041;SDS011;1026;51.460;7.252;2023-05-19T15:01:12;2.20;;;1.20;;
2041;SDS011;1026;51.460;7.252;2023-05-19T15:03:38;1.73;;;1.30;;
2041;SDS011;1026;51.460;7.252;2023-05-19T15:06:07;1.50;;;1.40;;
2041;SDS011;1026;51.460;7.252;2023-05-19T15:08:35;1.90;;;1.43;;
2041;SDS011;1026;51.460;7.252;2023-05-19T15:11:02;2.17;;;1.70;;
2041;SDS011;1026;51.460;7.252;2023-05-19T15:13:34;1.80;;;1.70;;
2041;SDS011;1026;51.460;7.252;2023-05-19T15:16:00;1.83;;;1.43;;
2041;SDS011;1026;51.460;7.252;2023-05-19T15:18:26;2.03;;;1.40;;
2041;SDS011;1026;51.460;7.252;2023-05-19T15:20:52;1.60;;;1.50;;
2041;SDS011;1026;51.460;7.252;2023-05-19T15:23:17;2.90;;;1.80;;
2041;SDS011;1026;51.460;7.252;2023-05-19T15:25:43;1.77;;;1.67;;
2041;SDS011;1026;51.460;7.252;2023-05-19T15:28:09;2.30;;;1.40;;
2041;SDS011;1026;51.460;7.252;2023-05-19T15:30:36;3.60;;;2.03;;
2041;SDS011;1026;51.460;7.252;2023-05-19T15:33:02;1.80;;;1.60;;
2041;SDS011;1026;51.460;7.252;2023-05-19T15:35:27;4.40;;;1.53;;
2041;SDS011;1026;51.460;7.252;2023-05-19T15:37:53;1.57;;;1.47;;
2041;SDS011;1026;51.460;7.252;2023-05-19T15:40:19;1.53;;;1.43;;